Ana Sayfa
METAR-TAF:

METAR-TAF

Havaalanları :

Nouakchott, Moritanya

Enlem: 18-18-36N, Boylam: 015-58-11W, yükseklik: 3 m

Güncel hava durumu gözlemi

Rapor saat 01:30 UTC de 40 dakika önce yapıldı.
Rüzgar kuzey/kuzeybatıdan 12 kt
Sıcaklık 20°C
Nem 88%
Basınç 1012 hPa
Görüş mesafesi: 8000 m

METAR: GQNO 260130Z 34012KT 8000 NSC 20/18 Q1012 NOSIG

Saat: 02:10 (02:10 UTC)

Tahmin

Rapor saat 17:00 UTC de 9 saat ve 10 dakika önce yapıldı.
Ayın 25'si saat 18 UTC'den ayın 26'si saat 24 UTC'ye kadar geçerli Tahmin
Rüzgar kuzey/kuzeybatıdan 14 kt
Görüş mesafesi: 6000 m
Dönüşüyor
ayın 26'si saat 08 UTC'den ayın 26'si saat 11 UTC'ye kadar
Rüzgar doğu/kuzeydoğudan 15 kt
Görüş mesafesi: 4000 m
Savrulan toz
Dönüşüyor
ayın 26'si saat 13 UTC'den ayın 26'si saat 15 UTC'ye kadar
Rüzgar kuzey/kuzeybatıdan 16 kt
Görüş mesafesi: 6000 m

TAF: GQNO 251700Z 2518/2624 33014KT 6000 NSC BECMG 2608/2611 06015KT 4000 BLDU BECMG 2613/2615 33016KT 6000 NSW

4.000'den fazla havaalanı için hava durumu gözlemleri ve tahminleri (METAR ve TAF raporları).

Kullanılabilir istasyonlar harita üzerinde sarı ve kırmızı noktalarla gösterilir.

İstasyonun adını görmek için fareyi noktanın üzerinde gezdirin.

Sonrasında hava gözlem ve tahminlerini görmek için tıklayın.

Haritayı değiştirmek için: yaklaştırmak için siyah artı işaretli yeşil düğmeye ve uzaklaştırmak için de eksi işaretli düğmeye hızla tıklayın; bitişik haritalar için yeşil okları kullanın.


METAR-TAF: